sensor_id;sensor_type;location;lat;lon;timestamp;P1;durP1;ratioP1;P2;durP2;ratioP2
25359;SDS011;13311;51.386;0.016;2023-03-23T00:03:02;26.15;;;6.00;;
25359;SDS011;13311;51.386;0.016;2023-03-23T00:08:03;23.00;;;6.05;;
25359;SDS011;13311;51.386;0.016;2023-03-23T00:13:04;20.40;;;5.45;;
25359;SDS011;13311;51.386;0.016;2023-03-23T00:18:05;26.38;;;6.00;;
25359;SDS011;13311;51.386;0.016;2023-03-23T00:23:06;19.60;;;5.80;;
25359;SDS011;13311;51.386;0.016;2023-03-23T00:28:07;30.25;;;7.10;;
25359;SDS011;13311;51.386;0.016;2023-03-23T00:33:08;29.50;;;5.20;;
25359;SDS011;13311;51.386;0.016;2023-03-23T00:38:12;22.30;;;5.00;;
25359;SDS011;13311;51.386;0.016;2023-03-23T00:43:14;26.33;;;6.15;;
25359;SDS011;13311;51.386;0.016;2023-03-23T00:48:16;23.20;;;4.78;;
25359;SDS011;13311;51.386;0.016;2023-03-23T00:53:17;18.25;;;5.38;;
25359;SDS011;13311;51.386;0.016;2023-03-23T00:58:18;18.80;;;5.15;;
25359;SDS011;13311;51.386;0.016;2023-03-23T01:03:19;26.13;;;6.32;;
25359;SDS011;13311;51.386;0.016;2023-03-23T01:08:20;32.85;;;5.60;;
25359;SDS011;13311;51.386;0.016;2023-03-23T01:13:22;21.92;;;5.55;;
25359;SDS011;13311;51.386;0.016;2023-03-23T01:18:23;26.83;;;6.25;;
25359;SDS011;13311;51.386;0.016;2023-03-23T01:23:23;28.63;;;6.60;;
25359;SDS011;13311;51.386;0.016;2023-03-23T01:28:24;30.92;;;7.15;;
25359;SDS011;13311;51.386;0.016;2023-03-23T01:33:25;33.33;;;7.00;;
25359;SDS011;13311;51.386;0.016;2023-03-23T01:38:25;28.65;;;6.82;;
25359;SDS011;13311;51.386;0.016;2023-03-23T01:43:26;24.85;;;6.65;;
25359;SDS011;13311;51.386;0.016;2023-03-23T01:48:32;19.70;;;4.38;;
25359;SDS011;13311;51.386;0.016;2023-03-23T01:53:46;29.30;;;6.38;;
25359;SDS011;13311;51.386;0.016;2023-03-23T01:59:08;36.10;;;6.53;;
25359;SDS011;13311;51.386;0.016;2023-03-23T02:04:11;20.70;;;5.55;;
25359;SDS011;13311;51.386;0.016;2023-03-23T02:09:15;31.88;;;5.90;;
25359;SDS011;13311;51.386;0.016;2023-03-23T02:14:19;27.80;;;5.90;;
25359;SDS011;13311;51.386;0.016;2023-03-23T02:19:32;34.28;;;6.30;;
25359;SDS011;13311;51.386;0.016;2023-03-23T02:41:32;26.88;;;6.93;;
25359;SDS011;13311;51.386;0.016;2023-03-23T02:46:40;39.75;;;6.78;;
25359;SDS011;13311;51.386;0.016;2023-03-23T02:51:43;23.48;;;6.22;;
25359;SDS011;13311;51.386;0.016;2023-03-23T02:56:46;23.63;;;6.28;;
25359;SDS011;13311;51.386;0.016;2023-03-23T03:01:48;31.65;;;7.13;;
25359;SDS011;13311;51.386;0.016;2023-03-23T03:18:03;34.70;;;6.18;;
25359;SDS011;13311;51.386;0.016;2023-03-23T03:23:09;28.98;;;6.18;;
25359;SDS011;13311;51.386;0.016;2023-03-23T03:28:21;22.08;;;5.38;;
25359;SDS011;13311;51.386;0.016;2023-03-23T03:33:25;34.88;;;7.63;;
25359;SDS011;13311;51.386;0.016;2023-03-23T03:38:27;30.05;;;7.07;;
25359;SDS011;13311;51.386;0.016;2023-03-23T03:43:28;30.88;;;6.85;;
25359;SDS011;13311;51.386;0.016;2023-03-23T03:48:29;31.67;;;6.78;;
25359;SDS011;13311;51.386;0.016;2023-03-23T03:53:30;35.25;;;6.28;;
25359;SDS011;13311;51.386;0.016;2023-03-23T03:58:31;25.90;;;6.70;;
25359;SDS011;13311;51.386;0.016;2023-03-23T04:03:32;44.00;;;6.88;;
25359;SDS011;13311;51.386;0.016;2023-03-23T04:08:32;32.28;;;7.30;;
25359;SDS011;13311;51.386;0.016;2023-03-23T04:13:34;33.10;;;7.70;;
25359;SDS011;13311;51.386;0.016;2023-03-23T04:18:35;21.40;;;5.18;;
25359;SDS011;13311;51.386;0.016;2023-03-23T04:23:36;21.90;;;4.70;;
25359;SDS011;13311;51.386;0.016;2023-03-23T04:28:38;25.77;;;6.47;;
25359;SDS011;13311;51.386;0.016;2023-03-23T04:33:41;28.30;;;6.25;;
25359;SDS011;13311;51.386;0.016;2023-03-23T04:38:41;31.35;;;6.78;;
25359;SDS011;13311;51.386;0.016;2023-03-23T04:43:42;32.15;;;6.85;;
25359;SDS011;13311;51.386;0.016;2023-03-23T04:48:43;36.10;;;6.88;;
25359;SDS011;13311;51.386;0.016;2023-03-23T04:53:44;32.75;;;7.28;;
25359;SDS011;13311;51.386;0.016;2023-03-23T04:58:46;33.33;;;8.52;;
25359;SDS011;13311;51.386;0.016;2023-03-23T05:03:47;33.70;;;7.50;;
25359;SDS011;13311;51.386;0.016;2023-03-23T05:08:48;37.20;;;7.30;;
25359;SDS011;13311;51.386;0.016;2023-03-23T05:13:48;40.33;;;7.90;;
25359;SDS011;13311;51.386;0.016;2023-03-23T05:18:49;26.17;;;6.50;;
25359;SDS011;13311;51.386;0.016;2023-03-23T05:23:50;47.55;;;8.43;;
25359;SDS011;13311;51.386;0.016;2023-03-23T05:28:55;38.03;;;6.80;;
25359;SDS011;13311;51.386;0.016;2023-03-23T05:33:56;30.17;;;8.00;;
25359;SDS011;13311;51.386;0.016;2023-03-23T05:38:57;40.13;;;9.18;;
25359;SDS011;13311;51.386;0.016;2023-03-23T05:44:00;40.30;;;8.93;;
25359;SDS011;13311;51.386;0.016;2023-03-23T05:49:00;41.00;;;9.07;;
25359;SDS011;13311;51.386;0.016;2023-03-23T05:54:02;34.63;;;7.90;;
25359;SDS011;13311;51.386;0.016;2023-03-23T05:59:03;35.53;;;7.22;;
25359;SDS011;13311;51.386;0.016;2023-03-23T06:04:04;35.45;;;7.63;;
25359;SDS011;13311;51.386;0.016;2023-03-23T06:09:05;30.13;;;5.90;;
25359;SDS011;13311;51.386;0.016;2023-03-23T06:14:06;26.52;;;5.72;;
25359;SDS011;13311;51.386;0.016;2023-03-23T06:19:07;31.30;;;7.68;;
25359;SDS011;13311;51.386;0.016;2023-03-23T06:24:08;30.80;;;6.68;;
25359;SDS011;13311;51.386;0.016;2023-03-23T06:29:10;28.00;;;6.45;;
25359;SDS011;13311;51.386;0.016;2023-03-23T06:34:11;34.83;;;6.50;;
25359;SDS011;13311;51.386;0.016;2023-03-23T06:39:12;28.17;;;6.47;;
25359;SDS011;13311;51.386;0.016;2023-03-23T06:44:13;32.72;;;6.50;;
25359;SDS011;13311;51.386;0.016;2023-03-23T06:49:15;29.92;;;6.22;;
25359;SDS011;13311;51.386;0.016;2023-03-23T06:54:16;29.63;;;6.78;;
25359;SDS011;13311;51.386;0.016;2023-03-23T06:59:16;27.17;;;6.40;;
25359;SDS011;13311;51.386;0.016;2023-03-23T07:04:17;31.20;;;6.63;;
25359;SDS011;13311;51.386;0.016;2023-03-23T07:09:18;42.85;;;8.15;;
25359;SDS011;13311;51.386;0.016;2023-03-23T07:14:19;38.38;;;8.85;;
25359;SDS011;13311;51.386;0.016;2023-03-23T07:19:21;31.95;;;6.25;;
25359;SDS011;13311;51.386;0.016;2023-03-23T07:24:22;26.92;;;7.10;;
25359;SDS011;13311;51.386;0.016;2023-03-23T07:29:23;34.03;;;7.28;;
25359;SDS011;13311;51.386;0.016;2023-03-23T07:34:23;29.13;;;6.38;;
25359;SDS011;13311;51.386;0.016;2023-03-23T07:39:24;37.33;;;8.23;;
25359;SDS011;13311;51.386;0.016;2023-03-23T07:44:26;36.47;;;8.73;;
25359;SDS011;13311;51.386;0.016;2023-03-23T07:49:26;36.63;;;7.90;;
25359;SDS011;13311;51.386;0.016;2023-03-23T07:54:27;27.73;;;6.68;;
25359;SDS011;13311;51.386;0.016;2023-03-23T07:59:29;25.10;;;6.68;;
25359;SDS011;13311;51.386;0.016;2023-03-23T08:04:30;28.58;;;6.70;;
25359;SDS011;13311;51.386;0.016;2023-03-23T08:09:36;37.30;;;7.35;;
25359;SDS011;13311;51.386;0.016;2023-03-23T08:14:37;22.98;;;5.82;;
25359;SDS011;13311;51.386;0.016;2023-03-23T08:19:39;35.72;;;8.13;;
25359;SDS011;13311;51.386;0.016;2023-03-23T08:24:40;22.60;;;5.93;;
25359;SDS011;13311;51.386;0.016;2023-03-23T08:29:43;23.20;;;5.65;;
25359;SDS011;13311;51.386;0.016;2023-03-23T08:34:45;34.08;;;6.53;;
25359;SDS011;13311;51.386;0.016;2023-03-23T08:39:50;28.50;;;7.55;;
25359;SDS011;13311;51.386;0.016;2023-03-23T08:44:53;26.88;;;6.40;;
25359;SDS011;13311;51.386;0.016;2023-03-23T08:49:54;22.20;;;5.53;;
25359;SDS011;13311;51.386;0.016;2023-03-23T08:54:54;19.02;;;5.25;;
25359;SDS011;13311;51.386;0.016;2023-03-23T08:59:56;19.00;;;5.32;;
25359;SDS011;13311;51.386;0.016;2023-03-23T09:04:59;24.70;;;5.95;;
25359;SDS011;13311;51.386;0.016;2023-03-23T09:10:01;24.05;;;6.38;;
25359;SDS011;13311;51.386;0.016;2023-03-23T09:15:03;30.85;;;6.60;;
25359;SDS011;13311;51.386;0.016;2023-03-23T09:20:08;22.98;;;6.30;;
25359;SDS011;13311;51.386;0.016;2023-03-23T09:25:14;22.48;;;6.18;;
25359;SDS011;13311;51.386;0.016;2023-03-23T09:30:25;18.90;;;4.82;;
25359;SDS011;13311;51.386;0.016;2023-03-23T09:35:33;22.33;;;5.10;;
25359;SDS011;13311;51.386;0.016;2023-03-23T09:40:47;28.58;;;6.63;;
25359;SDS011;13311;51.386;0.016;2023-03-23T09:52:07;20.83;;;4.97;;
25359;SDS011;13311;51.386;0.016;2023-03-23T10:02:59;19.25;;;5.07;;
25359;SDS011;13311;51.386;0.016;2023-03-23T10:08:24;14.85;;;4.13;;
25359;SDS011;13311;51.386;0.016;2023-03-23T10:19:33;17.75;;;4.50;;
25359;SDS011;13311;51.386;0.016;2023-03-23T10:30:13;16.00;;;4.82;;
25359;SDS011;13311;51.386;0.016;2023-03-23T10:35:25;14.25;;;3.85;;
25359;SDS011;13311;51.386;0.016;2023-03-23T10:40:43;15.13;;;4.07;;
25359;SDS011;13311;51.386;0.016;2023-03-23T10:45:53;14.38;;;3.35;;
25359;SDS011;13311;51.386;0.016;2023-03-23T10:51:02;17.27;;;3.50;;
25359;SDS011;13311;51.386;0.016;2023-03-23T10:56:17;17.08;;;4.22;;
25359;SDS011;13311;51.386;0.016;2023-03-23T11:01:30;18.02;;;4.07;;
25359;SDS011;13311;51.386;0.016;2023-03-23T11:06:33;18.48;;;4.80;;
25359;SDS011;13311;51.386;0.016;2023-03-23T11:11:40;18.55;;;4.25;;
25359;SDS011;13311;51.386;0.016;2023-03-23T11:16:52;16.00;;;4.40;;
25359;SDS011;13311;51.386;0.016;2023-03-23T11:27:05;19.15;;;5.15;;
25359;SDS011;13311;51.386;0.016;2023-03-23T11:32:12;24.90;;;5.28;;
25359;SDS011;13311;51.386;0.016;2023-03-23T11:42:44;16.60;;;3.88;;
25359;SDS011;13311;51.386;0.016;2023-03-23T11:47:54;13.63;;;4.10;;
25359;SDS011;13311;51.386;0.016;2023-03-23T11:58:38;21.52;;;5.65;;
25359;SDS011;13311;51.386;0.016;2023-03-23T12:03:44;22.63;;;5.75;;
25359;SDS011;13311;51.386;0.016;2023-03-23T12:09:04;27.10;;;6.38;;
25359;SDS011;13311;51.386;0.016;2023-03-23T12:25:30;24.85;;;6.20;;
25359;SDS011;13311;51.386;0.016;2023-03-23T12:36:19;22.17;;;5.50;;
25359;SDS011;13311;51.386;0.016;2023-03-23T12:52:23;31.43;;;7.13;;
25359;SDS011;13311;51.386;0.016;2023-03-23T12:57:43;27.25;;;7.35;;
25359;SDS011;13311;51.386;0.016;2023-03-23T13:08:04;22.88;;;5.97;;
25359;SDS011;13311;51.386;0.016;2023-03-23T13:13:17;26.38;;;6.63;;
25359;SDS011;13311;51.386;0.016;2023-03-23T13:23:49;30.55;;;5.97;;
25359;SDS011;13311;51.386;0.016;2023-03-23T13:29:00;23.55;;;6.10;;
25359;SDS011;13311;51.386;0.016;2023-03-23T13:34:19;34.03;;;7.35;;
25359;SDS011;13311;51.386;0.016;2023-03-23T13:39:30;30.05;;;7.68;;
25359;SDS011;13311;51.386;0.016;2023-03-23T13:49:55;22.30;;;6.47;;
25359;SDS011;13311;51.386;0.016;2023-03-23T14:00:46;23.83;;;6.20;;
25359;SDS011;13311;51.386;0.016;2023-03-23T14:06:13;18.20;;;5.03;;
25359;SDS011;13311;51.386;0.016;2023-03-23T14:11:17;21.00;;;4.55;;
25359;SDS011;13311;51.386;0.016;2023-03-23T14:16:24;25.92;;;6.47;;
25359;SDS011;13311;51.386;0.016;2023-03-23T14:26:41;33.78;;;6.95;;
25359;SDS011;13311;51.386;0.016;2023-03-23T14:31:43;20.15;;;6.25;;
25359;SDS011;13311;51.386;0.016;2023-03-23T14:36:44;23.10;;;6.35;;
25359;SDS011;13311;51.386;0.016;2023-03-23T14:41:45;26.38;;;6.95;;
25359;SDS011;13311;51.386;0.016;2023-03-23T14:46:46;33.03;;;7.97;;
25359;SDS011;13311;51.386;0.016;2023-03-23T14:51:52;31.35;;;7.20;;
25359;SDS011;13311;51.386;0.016;2023-03-23T14:56:55;29.02;;;6.90;;
25359;SDS011;13311;51.386;0.016;2023-03-23T15:01:56;32.53;;;6.82;;
25359;SDS011;13311;51.386;0.016;2023-03-23T15:07:00;37.70;;;7.60;;
25359;SDS011;13311;51.386;0.016;2023-03-23T15:12:04;36.63;;;7.82;;
25359;SDS011;13311;51.386;0.016;2023-03-23T15:17:05;29.77;;;7.18;;
25359;SDS011;13311;51.386;0.016;2023-03-23T15:27:31;28.10;;;6.97;;
25359;SDS011;13311;51.386;0.016;2023-03-23T15:32:38;25.25;;;6.07;;
25359;SDS011;13311;51.386;0.016;2023-03-23T15:37:48;27.90;;;7.15;;
25359;SDS011;13311;51.386;0.016;2023-03-23T15:43:17;28.17;;;6.60;;
25359;SDS011;13311;51.386;0.016;2023-03-23T15:48:33;19.90;;;5.10;;
25359;SDS011;13311;51.386;0.016;2023-03-23T15:53:57;25.33;;;6.03;;
25359;SDS011;13311;51.386;0.016;2023-03-23T15:58:58;22.63;;;6.25;;
25359;SDS011;13311;51.386;0.016;2023-03-23T16:04:10;34.20;;;8.18;;
25359;SDS011;13311;51.386;0.016;2023-03-23T16:09:17;20.88;;;6.20;;
25359;SDS011;13311;51.386;0.016;2023-03-23T16:14:19;20.25;;;6.75;;
25359;SDS011;13311;51.386;0.016;2023-03-23T16:19:20;27.88;;;6.53;;
25359;SDS011;13311;51.386;0.016;2023-03-23T16:24:23;27.33;;;6.18;;
25359;SDS011;13311;51.386;0.016;2023-03-23T16:29:24;19.40;;;5.20;;
25359;SDS011;13311;51.386;0.016;2023-03-23T16:34:24;22.85;;;5.05;;
25359;SDS011;13311;51.386;0.016;2023-03-23T16:39:27;15.50;;;4.88;;
25359;SDS011;13311;51.386;0.016;2023-03-23T16:44:29;23.60;;;5.35;;
25359;SDS011;13311;51.386;0.016;2023-03-23T16:49:29;14.73;;;4.25;;
25359;SDS011;13311;51.386;0.016;2023-03-23T16:54:30;14.88;;;4.18;;
25359;SDS011;13311;51.386;0.016;2023-03-23T16:59:31;11.35;;;3.47;;
25359;SDS011;13311;51.386;0.016;2023-03-23T17:04:32;11.32;;;3.08;;
25359;SDS011;13311;51.386;0.016;2023-03-23T17:09:33;9.95;;;2.90;;
25359;SDS011;13311;51.386;0.016;2023-03-23T17:14:33;6.53;;;2.50;;
25359;SDS011;13311;51.386;0.016;2023-03-23T17:19:34;14.95;;;3.30;;
25359;SDS011;13311;51.386;0.016;2023-03-23T17:24:35;10.02;;;3.00;;
25359;SDS011;13311;51.386;0.016;2023-03-23T17:29:36;12.77;;;3.00;;
25359;SDS011;13311;51.386;0.016;2023-03-23T17:34:37;16.20;;;3.47;;
25359;SDS011;13311;51.386;0.016;2023-03-23T17:39:38;13.25;;;4.13;;
25359;SDS011;13311;51.386;0.016;2023-03-23T17:44:39;14.50;;;3.60;;
25359;SDS011;13311;51.386;0.016;2023-03-23T17:49:40;16.23;;;4.45;;
25359;SDS011;13311;51.386;0.016;2023-03-23T17:54:41;21.60;;;5.60;;
25359;SDS011;13311;51.386;0.016;2023-03-23T17:59:42;21.63;;;4.72;;
25359;SDS011;13311;51.386;0.016;2023-03-23T18:04:43;21.67;;;5.53;;
25359;SDS011;13311;51.386;0.016;2023-03-23T18:09:45;26.67;;;5.80;;
25359;SDS011;13311;51.386;0.016;2023-03-23T18:14:46;20.55;;;4.88;;
25359;SDS011;13311;51.386;0.016;2023-03-23T18:19:47;17.50;;;4.60;;
25359;SDS011;13311;51.386;0.016;2023-03-23T18:24:47;14.85;;;5.18;;
25359;SDS011;13311;51.386;0.016;2023-03-23T18:29:48;16.88;;;6.82;;
25359;SDS011;13311;51.386;0.016;2023-03-23T18:34:49;19.63;;;8.60;;
25359;SDS011;13311;51.386;0.016;2023-03-23T18:39:50;11.82;;;3.70;;
25359;SDS011;13311;51.386;0.016;2023-03-23T18:44:52;12.90;;;3.58;;
25359;SDS011;13311;51.386;0.016;2023-03-23T18:49:54;10.18;;;3.50;;
25359;SDS011;13311;51.386;0.016;2023-03-23T18:54:55;17.27;;;4.85;;
25359;SDS011;13311;51.386;0.016;2023-03-23T18:59:57;8.35;;;2.78;;
25359;SDS011;13311;51.386;0.016;2023-03-23T19:04:58;8.85;;;3.08;;
25359;SDS011;13311;51.386;0.016;2023-03-23T19:09:59;11.27;;;2.63;;
25359;SDS011;13311;51.386;0.016;2023-03-23T19:15:00;9.10;;;2.55;;
25359;SDS011;13311;51.386;0.016;2023-03-23T19:20:01;11.02;;;2.33;;
25359;SDS011;13311;51.386;0.016;2023-03-23T19:25:03;7.93;;;1.98;;
25359;SDS011;13311;51.386;0.016;2023-03-23T19:30:07;8.77;;;2.88;;
25359;SDS011;13311;51.386;0.016;2023-03-23T19:35:08;10.10;;;2.15;;
25359;SDS011;13311;51.386;0.016;2023-03-23T19:40:09;9.68;;;2.30;;
25359;SDS011;13311;51.386;0.016;2023-03-23T19:45:11;8.50;;;2.28;;
25359;SDS011;13311;51.386;0.016;2023-03-23T19:50:11;9.15;;;2.45;;
25359;SDS011;13311;51.386;0.016;2023-03-23T19:55:12;7.97;;;2.80;;
25359;SDS011;13311;51.386;0.016;2023-03-23T20:00:14;6.70;;;2.85;;
25359;SDS011;13311;51.386;0.016;2023-03-23T20:05:16;9.65;;;2.50;;
25359;SDS011;13311;51.386;0.016;2023-03-23T20:10:16;8.15;;;2.85;;
25359;SDS011;13311;51.386;0.016;2023-03-23T20:15:17;16.00;;;3.10;;
25359;SDS011;13311;51.386;0.016;2023-03-23T20:20:18;8.93;;;2.83;;
25359;SDS011;13311;51.386;0.016;2023-03-23T20:25:19;9.95;;;2.65;;
25359;SDS011;13311;51.386;0.016;2023-03-23T20:30:20;8.82;;;2.20;;
25359;SDS011;13311;51.386;0.016;2023-03-23T20:35:21;10.02;;;3.05;;
25359;SDS011;13311;51.386;0.016;2023-03-23T20:40:21;7.30;;;2.30;;
25359;SDS011;13311;51.386;0.016;2023-03-23T20:45:22;12.43;;;2.97;;
25359;SDS011;13311;51.386;0.016;2023-03-23T20:50:23;5.45;;;2.25;;
25359;SDS011;13311;51.386;0.016;2023-03-23T20:55:23;7.10;;;2.47;;
25359;SDS011;13311;51.386;0.016;2023-03-23T21:00:24;7.10;;;2.50;;
25359;SDS011;13311;51.386;0.016;2023-03-23T21:05:25;9.43;;;2.20;;
25359;SDS011;13311;51.386;0.016;2023-03-23T21:10:26;8.23;;;2.00;;
25359;SDS011;13311;51.386;0.016;2023-03-23T21:15:27;8.48;;;2.30;;
25359;SDS011;13311;51.386;0.016;2023-03-23T21:20:29;7.90;;;1.90;;
25359;SDS011;13311;51.386;0.016;2023-03-23T21:25:30;6.13;;;2.17;;
25359;SDS011;13311;51.386;0.016;2023-03-23T21:30:33;7.32;;;1.90;;
25359;SDS011;13311;51.386;0.016;2023-03-23T21:35:34;6.55;;;2.42;;
25359;SDS011;13311;51.386;0.016;2023-03-23T21:40:35;8.20;;;1.75;;
25359;SDS011;13311;51.386;0.016;2023-03-23T21:45:35;4.63;;;1.60;;
25359;SDS011;13311;51.386;0.016;2023-03-23T21:50:39;6.00;;;1.80;;
25359;SDS011;13311;51.386;0.016;2023-03-23T21:55:41;5.10;;;1.70;;
25359;SDS011;13311;51.386;0.016;2023-03-23T22:00:44;6.30;;;1.70;;
25359;SDS011;13311;51.386;0.016;2023-03-23T22:05:45;8.43;;;2.00;;
25359;SDS011;13311;51.386;0.016;2023-03-23T22:10:47;6.53;;;2.15;;
25359;SDS011;13311;51.386;0.016;2023-03-23T22:15:49;8.75;;;1.88;;
25359;SDS011;13311;51.386;0.016;2023-03-23T22:20:51;5.10;;;1.90;;
25359;SDS011;13311;51.386;0.016;2023-03-23T22:25:52;5.93;;;1.70;;
25359;SDS011;13311;51.386;0.016;2023-03-23T22:30:54;3.00;;;1.05;;
25359;SDS011;13311;51.386;0.016;2023-03-23T22:36:04;9.57;;;1.50;;
25359;SDS011;13311;51.386;0.016;2023-03-23T22:41:06;6.65;;;2.03;;
25359;SDS011;13311;51.386;0.016;2023-03-23T22:46:09;11.75;;;2.58;;
25359;SDS011;13311;51.386;0.016;2023-03-23T22:51:11;7.30;;;2.00;;
25359;SDS011;13311;51.386;0.016;2023-03-23T22:56:14;10.82;;;1.80;;
25359;SDS011;13311;51.386;0.016;2023-03-23T23:01:17;7.55;;;2.20;;
25359;SDS011;13311;51.386;0.016;2023-03-23T23:06:20;7.75;;;2.88;;
25359;SDS011;13311;51.386;0.016;2023-03-23T23:11:22;6.68;;;2.10;;
25359;SDS011;13311;51.386;0.016;2023-03-23T23:16:24;12.40;;;2.25;;
25359;SDS011;13311;51.386;0.016;2023-03-23T23:21:26;12.15;;;2.88;;
25359;SDS011;13311;51.386;0.016;2023-03-23T23:26:27;5.85;;;2.40;;
25359;SDS011;13311;51.386;0.016;2023-03-23T23:31:29;8.48;;;2.63;;
25359;SDS011;13311;51.386;0.016;2023-03-23T23:36:32;6.85;;;2.05;;
25359;SDS011;13311;51.386;0.016;2023-03-23T23:41:33;7.50;;;2.30;;
25359;SDS011;13311;51.386;0.016;2023-03-23T23:46:35;6.85;;;2.20;;
25359;SDS011;13311;51.386;0.016;2023-03-23T23:51:36;6.38;;;1.77;;
25359;SDS011;13311;51.386;0.016;2023-03-23T23:56:37;9.73;;;2.17;;
